• Join FlightAware (Why Join?)
  • Login
  • US Flag 
10:29AM EDT


 

Airport Tracker/Info


-or-


 

Live Flight TrackerFlight Track Log ✈ KAP5 ✈ 22-Jun-2013 ✈ KBOS - KALB

Flight Track Log - Related Links

Times and Time Zones

All times are in EDT time to prevent confusion due to time zone crossing. See the KAP5 flight status page for this flight to view local times or setup timezone preferences in your user account.

Time Position Orientation Groundspeed Altitude Reporting Facility
EDT Latitude Longitude Course Direction KTS MPH feet Rate Location/Type
09:31AM 42.3667 -71.0167 246° West 111 128 500  Level KA90
09:32AM 42.3500 -71.0667 246° West 106 122 2,200 960 Climbing KA90
09:33AM 42.3500 -71.1167 270° West 121 139 3,000 660 Climbing KA90
09:34AM 42.3500 -71.1667 270° West 122 140 3,600 600 Climbing KA90
09:35AM 42.3333 -71.2000 236° Southwest 107 123 4,200 600 Climbing KA90
09:36AM 42.3333 -71.2500 270° West 104 120 4,900 540 Climbing KA90
09:37AM 42.3333 -71.2833 270° West 110 127 5,400 420 Climbing KA90
09:38AM 42.3333 -71.3333 270° West 119 137 5,800 420 Climbing KA90
09:39AM 42.3167 -71.3667 236° Southwest 122 140 6,300 420 Climbing KA90
09:40AM 42.3167 -71.4167 270° West 129 148 6,700 420 Climbing KA90
09:41AM 42.3086 -71.4575 255° West 131 151 7,000 420 Climbing Boston Center
09:42AM 42.3047 -71.4883 260° West 133 153 7,300 360 Climbing Boston Center
09:43AM 42.2989 -71.5392 261° West 135 155 7,700 360 Climbing Boston Center
09:44AM 42.2950 -71.5925 264° West 139 160 8,100 240 Climbing Boston Center
09:45AM 42.2975 -71.6514 273° West 154 177 8,300 300 Climbing Boston Center
09:46AM 42.2981 -71.7047 271° West 143 165 8,800 540 Climbing Boston Center
09:47AM 42.2961 -71.7525 267° West 132 152 9,400 540 Climbing Boston Center
09:48AM 42.2986 -71.8031 274° West 132 152 9,900 300 Climbing Boston Center
09:49AM 42.2967 -71.8619 267° West 142 163 10,100 60 Climbing Boston Center
09:50AM 42.2992 -71.9236 273° West 163 188 10,100  Level Boston Center
09:51AM 42.2975 -71.9881 268° West 168 193 10,100  Level Boston Center
09:52AM 42.2975 -72.0472 270° West 170 196 10,100  Level Boston Center
09:53AM 42.3000 -72.1117 273° West 171 197 10,100  Level Boston Center
09:54AM 42.3208 -72.1706 296° West 173 199 10,100 -60 Level Boston Center
09:55AM 42.3378 -72.2322 290° West 171 197 10,000 -60 Descending Boston Center
09:56AM 42.3544 -72.2997 288° West 169 194 10,000  Level Boston Center
09:57AM 42.3711 -72.3586 291° West 170 196 10,000  Level Boston Center
09:58AM 42.3900 -72.4289 290° West 169 194 10,100  Climbing Boston Center
09:59AM 42.4025 -72.4822 288° West 170 196 10,000 -60 Descending Boston Center
10:00AM 42.4192 -72.5442 290° West 169 194 10,000  Level Boston Center
10:01AM 42.4358 -72.5978 293° West 169 194 10,000  Level Boston Center
10:02AM 42.4522 -72.6625 289° West 168 193 10,000  Level Boston Center
10:03AM 42.4689 -72.7244 290° West 168 193 10,000  Level Boston Center
10:04AM 42.4792 -72.7611 291° West 168 193 10,000  Level Boston Center
10:05AM 42.4978 -72.8231 292° West 165 190 10,000  Level Boston Center
10:06AM 42.5100 -72.8767 287° West 164 189 10,000  Level Boston Center
10:07AM 42.5244 -72.9358 288° West 163 188 10,000  Level Boston Center
10:08AM 42.5408 -72.9981 290° West 164 189 10,000  Level Boston Center
10:09AM 42.5592 -73.0631 291° West 167 192 10,000  Level Boston Center
10:10AM 42.5714 -73.1222 286° West 167 192 10,000 -300 Level Boston Center
10:11AM 42.5897 -73.1817 293° West 174 200 9,500 -660 Descending Boston Center
10:12AM 42.6081 -73.2525 289° West 191 220 8,700 -840 Descending Boston Center
10:13AM 42.6242 -73.3092 291° West 186 214 8,000 -780 Descending Boston Center
10:14AM 42.6383 -73.3686 288° West 176 203 7,300 -780 Descending Boston Center
10:15AM 42.6525 -73.4253 289° West 163 188 6,500 -780 Descending Boston Center
10:16AM 42.6875 -73.4794 311° West 178 205 5,700 -660 Descending Boston Center
10:17AM 42.7308 -73.5114 332° Northwest 175 201 5,200 -480 Descending Boston Center
10:18AM 42.7783 -73.5489 330° Northwest 167 192 4,700 -540 Descending Boston Center
10:19AM 42.8136 -73.5750 332° Northwest 176 203 4,200 -600 Descending Boston Center
10:20AM 42.8339 -73.6319 296° West 176 203 3,700 -600 Descending Boston Center
10:21AM 42.8519 -73.7003 290° West 169 194 3,000 -600 Descending Boston Center
10:22AM 42.8575 -73.7572 278° West 158 182 2,500 -600 Descending Boston Center
10:23AM 42.8258 -73.8017 226° Southwest 166 191 1,800 -840 Descending Boston Center
10:24AM 42.7819 -73.8092 187° South 154 177 900 -900 Descending Boston Center
10:26AM 42.7491 -73.8020 212° Southwest  Level Estimated
10:33AM 42.7491 -73.8020 212° Southwest  Level Estimated
10:34AM 42.7491 -73.8020 212° Southwest  Level Estimated
10:35AM 42.7491 -73.8020 212° Southwest  Level Estimated